Time;durP1;ratioP1;P1;durP2;ratioP2;P2;SDS_P1;SDS_P2;PMS_P1;PMS_P2;Temp;Humidity;BMP_temperature;BMP_pressure;BME280_temperature;BME280_humidity;BME280_pressure;Samples;Min_cycle;Max_cycle;Signal;HPM_P1;HPM_P2
2023/11/23 09:17:10;;;;;;;2.67;1.20;;;11.20;99.90;;;;;;4268799;26;20236;-74
2023/11/23 09:19:36;;;;;;;6.43;1.77;;;11.30;99.90;;;;;;4927633;29;20563;-75
2023/11/23 09:22:04;;;;;;;4.80;1.57;;;11.30;99.90;;;;;;4943824;29;20602;-74
2023/11/23 09:24:31;;;;;;;4.90;1.40;;;11.20;99.90;;;;;;4940208;28;20219;-75
2023/11/23 09:26:58;;;;;;;3.77;1.57;;;11.30;99.90;;;;;;4937061;29;20241;-72
2023/11/23 09:29:25;;;;;;;3.10;1.37;;;11.30;99.90;;;;;;4937279;29;20213;-76
2023/11/23 09:31:53;;;;;;;7.27;1.40;;;11.40;99.90;;;;;;4944609;29;20230;-72
2023/11/23 09:34:22;;;;;;;3.73;1.67;;;11.40;99.90;;;;;;4939070;28;20216;-74
2023/11/23 09:36:50;;;;;;;3.43;1.40;;;11.40;99.90;;;;;;4918062;29;20225;-74
2023/11/23 09:39:17;;;;;;;3.30;1.10;;;11.50;99.90;;;;;;4918019;29;20245;-73
2023/11/23 09:41:45;;;;;;;3.87;1.80;;;11.40;99.90;;;;;;4917737;29;20239;-72
2023/11/23 09:44:11;;;;;;;2.13;1.07;;;11.50;99.90;;;;;;4929606;29;20289;-74
2023/11/23 09:46:43;;;;;;;4.47;1.37;;;11.60;99.90;;;;;;4917453;29;20237;-75
2023/11/23 09:49:12;;;;;;;4.03;1.20;;;11.60;99.90;;;;;;4917868;29;20209;-74
2023/11/23 09:51:42;;;;;;;4.30;1.63;;;11.60;99.90;;;;;;4917727;29;20229;-73
2023/11/23 09:54:09;;;;;;;2.33;1.10;;;11.60;99.90;;;;;;4930185;29;20209;-73
2023/11/23 09:56:36;;;;;;;3.70;1.50;;;11.60;99.90;;;;;;4917832;29;20210;-74
2023/11/23 09:59:04;;;;;;;2.90;1.17;;;11.80;99.90;;;;;;4917999;29;20213;-72
2023/11/23 10:01:33;;;;;;;2.50;1.40;;;11.80;99.90;;;;;;4917701;29;20260;-73
2023/11/23 10:04:00;;;;;;;2.23;1.03;;;11.90;99.90;;;;;;4929365;29;20209;-74
2023/11/23 10:06:27;;;;;;;3.13;1.30;;;12.10;99.90;;;;;;4918498;29;20635;-73
2023/11/23 10:08:55;;;;;;;2.80;1.23;;;12.30;99.90;;;;;;4939881;29;20659;-75
2023/11/23 10:11:23;;;;;;;1.57;1.00;;;12.30;99.90;;;;;;4927025;28;20208;-73
2023/11/23 10:13:50;;;;;;;1.93;1.07;;;12.30;99.90;;;;;;4936996;29;20208;-75
2023/11/23 10:16:17;;;;;;;2.83;1.30;;;12.30;99.90;;;;;;4921391;29;20309;-73
2023/11/23 10:18:44;;;;;;;3.33;1.17;;;12.30;99.90;;;;;;4918022;29;20213;-74
2023/11/23 10:21:12;;;;;;;2.73;1.13;;;12.30;99.90;;;;;;4917883;29;20241;-74
2023/11/23 10:23:40;;;;;;;25.07;9.27;;;12.30;99.90;;;;;;4927277;29;20237;-75
2023/11/23 10:26:09;;;;;;;3.37;1.30;;;12.30;99.90;;;;;;4922895;29;20320;-74
2023/11/23 10:28:38;;;;;;;1.73;1.10;;;12.40;99.90;;;;;;4936036;29;20332;-76
2023/11/23 10:31:14;;;;;;;1.87;1.20;;;12.40;99.90;;;;;;4928985;28;20208;-72
2023/11/23 10:33:42;;;;;;;5.73;1.20;;;12.30;99.90;;;;;;4934034;28;20664;-74
2023/11/23 10:36:10;;;;;;;4.50;1.20;;;12.30;99.90;;;;;;4932091;29;20200;-77
2023/11/23 10:38:39;;;;;;;1.93;1.13;;;12.30;99.90;;;;;;4932097;29;20679;-75
2023/11/23 10:41:08;;;;;;;4.67;1.30;;;12.30;99.90;;;;;;4928267;29;20209;-78
2023/11/23 10:43:37;;;;;;;1.77;1.10;;;12.30;99.90;;;;;;4933178;29;20500;-75
2023/11/23 10:46:09;;;;;;;4.17;1.10;;;12.40;99.90;;;;;;4921293;29;20233;-76
2023/11/23 10:48:36;;;;;;;4.43;1.20;;;12.50;99.90;;;;;;4915711;29;20624;-75
2023/11/23 10:51:05;;;;;;;3.10;1.17;;;12.50;99.90;;;;;;4920213;29;20219;-76
2023/11/23 10:53:33;;;;;;;3.53;0.80;;;12.60;99.90;;;;;;4934178;29;20263;-76
2023/11/23 10:56:06;;;;;;;2.87;1.10;;;12.60;99.90;;;;;;4931917;29;20208;-74
2023/11/23 10:58:38;;;;;;;2.10;1.00;;;12.60;99.90;;;;;;4931827;29;20243;-74
2023/11/23 11:01:08;;;;;;;3.60;1.40;;;12.70;99.90;;;;;;4929387;29;20216;-75
2023/11/23 11:03:36;;;;;;;3.70;1.20;;;12.80;99.90;;;;;;4932888;29;20237;-74
2023/11/23 11:06:09;;;;;;;2.93;1.50;;;12.80;99.90;;;;;;4932888;29;20221;-79
2023/11/23 11:08:39;;;;;;;5.03;1.00;;;12.80;99.90;;;;;;4935243;29;20216;-73
2023/11/23 11:11:10;;;;;;;3.33;1.10;;;12.90;99.90;;;;;;4929926;29;20668;-74
2023/11/23 11:13:42;;;;;;;2.63;1.20;;;13.00;99.90;;;;;;4932914;29;20215;-74
2023/11/23 11:16:12;;;;;;;2.93;1.10;;;12.90;99.90;;;;;;4928261;29;20224;-74
2023/11/23 11:18:39;;;;;;;3.10;1.00;;;12.80;99.90;;;;;;4933685;29;20228;-73
2023/11/23 11:21:10;;;;;;;4.03;1.77;;;12.80;99.90;;;;;;4927797;29;20253;-73
2023/11/23 11:23:38;;;;;;;2.37;1.00;;;12.90;99.90;;;;;;4933805;29;20236;-72
2023/11/23 11:26:10;;;;;;;5.13;1.27;;;12.90;99.90;;;;;;4923581;29;20237;-73
2023/11/23 11:28:38;;;;;;;3.93;1.03;;;12.90;99.90;;;;;;4931775;29;20248;-73
2023/11/23 11:31:08;;;;;;;3.73;0.93;;;13.00;99.90;;;;;;4931656;29;20211;-73
2023/11/23 11:33:37;;;;;;;2.80;0.90;;;13.10;99.90;;;;;;4933417;29;20249;-77
2023/11/23 11:36:07;;;;;;;2.50;0.80;;;13.00;99.90;;;;;;4923670;29;20213;-72
2023/11/23 11:38:36;;;;;;;6.30;1.20;;;13.10;99.90;;;;;;4914810;29;20213;-72
2023/11/23 11:41:05;;;;;;;2.70;1.10;;;13.00;99.90;;;;;;4923646;29;20212;-72
2023/11/23 11:43:33;;;;;;;3.83;1.00;;;13.10;99.90;;;;;;4937662;29;20236;-73
2023/11/23 11:46:03;;;;;;;4.93;1.23;;;13.10;99.90;;;;;;4928259;29;20202;-72
2023/11/23 11:48:31;;;;;;;1.33;0.90;;;13.10;99.90;;;;;;4919144;29;20213;-74
2023/11/23 11:50:58;;;;;;;2.47;0.83;;;13.00;99.90;;;;;;4922425;29;20211;-73
2023/11/23 11:53:25;;;;;;;4.87;1.80;;;12.90;99.90;;;;;;4937167;29;20731;-72
2023/11/23 11:55:55;;;;;;;1.83;0.90;;;12.80;99.90;;;;;;4930068;29;20241;-72
2023/11/23 11:58:23;;;;;;;1.90;1.00;;;12.80;99.90;;;;;;4923118;29;20745;-76
2023/11/23 12:00:50;;;;;;;5.10;1.00;;;13.00;99.90;;;;;;4936235;29;20232;-72
2023/11/23 12:03:18;;;;;;;6.43;1.23;;;13.10;99.90;;;;;;4937125;29;20228;-73
2023/11/23 12:05:46;;;;;;;4.43;1.30;;;13.30;99.90;;;;;;4931788;29;20251;-75
2023/11/23 12:08:14;;;;;;;1.47;0.90;;;13.40;99.90;;;;;;4929963;29;20274;-75
2023/11/23 12:10:42;;;;;;;3.10;0.90;;;13.40;99.90;;;;;;4940208;28;20300;-72
2023/11/23 12:13:14;;;;;;;2.90;0.90;;;13.50;99.90;;;;;;4924286;29;20252;-73
2023/11/23 12:15:42;;;;;;;1.73;0.87;;;13.50;99.90;;;;;;4933648;29;20209;-75
2023/11/23 12:18:09;;;;;;;3.60;1.00;;;13.60;99.90;;;;;;4919580;29;20209;-74
2023/11/23 12:20:37;;;;;;;2.43;1.00;;;13.40;99.90;;;;;;4919330;29;20292;-77
2023/11/23 12:23:06;;;;;;;2.10;0.97;;;13.40;99.90;;;;;;4919749;29;20289;-76
2023/11/23 12:25:34;;;;;;;2.37;1.00;;;13.30;99.90;;;;;;4919641;29;20214;-75
2023/11/23 12:28:02;;;;;;;2.43;0.70;;;13.10;99.90;;;;;;4929825;29;20787;-77
2023/11/23 12:30:29;;;;;;;3.03;0.83;;;13.10;99.90;;;;;;4939036;29;20215;-73
2023/11/23 12:32:58;;;;;;;3.53;1.27;;;13.10;99.90;;;;;;4928942;29;20859;-72
2023/11/23 12:35:25;;;;;;;2.77;1.00;;;13.00;99.90;;;;;;4938641;29;20216;-76
2023/11/23 12:37:52;;;;;;;4.20;1.20;;;13.00;99.90;;;;;;4951369;28;20303;-76
2023/11/23 12:40:20;;;;;;;1.80;0.77;;;13.00;99.90;;;;;;4957687;28;20281;-77
2023/11/23 12:42:48;;;;;;;3.50;1.33;;;13.00;99.90;;;;;;4930740;28;20226;-76
2023/11/23 12:45:15;;;;;;;2.23;0.90;;;13.00;99.90;;;;;;4932510;29;20341;-76
2023/11/23 12:47:43;;;;;;;6.63;0.90;;;12.90;99.90;;;;;;4944287;28;20248;-72
2023/11/23 12:50:11;;;;;;;4.30;1.00;;;12.90;99.90;;;;;;4937256;29;20638;-77
2023/11/23 12:52:39;;;;;;;3.47;1.00;;;12.80;99.90;;;;;;4926474;29;20226;-77
2023/11/23 12:55:08;;;;;;;4.50;1.77;;;13.00;99.90;;;;;;4919245;29;20269;-76
2023/11/23 12:57:37;;;;;;;4.17;1.10;;;13.10;99.90;;;;;;4919372;29;20209;-75
2023/11/23 13:00:05;;;;;;;4.80;1.00;;;13.20;99.90;;;;;;4919572;29;20668;-76
2023/11/23 13:02:34;;;;;;;2.60;0.80;;;13.30;99.90;;;;;;4919270;29;20342;-76
2023/11/23 13:05:01;;;;;;;2.03;1.17;;;13.10;99.90;;;;;;4919380;29;20665;-76
2023/11/23 13:07:28;;;;;;;1.30;0.80;;;13.00;99.90;;;;;;4919805;29;20317;-76
2023/11/23 13:09:55;;;;;;;1.23;0.63;;;13.10;99.90;;;;;;4918960;29;20217;-79
2023/11/23 13:12:24;;;;;;;2.20;0.80;;;13.10;99.90;;;;;;4918857;29;20220;-75
2023/11/23 13:14:52;;;;;;;4.90;0.90;;;13.10;99.90;;;;;;4919276;29;20210;-77
2023/11/23 13:17:19;;;;;;;1.27;0.60;;;13.00;99.90;;;;;;4920091;29;20214;-75
2023/11/23 13:19:47;;;;;;;1.27;0.80;;;13.00;99.90;;;;;;4919027;29;20609;-73
2023/11/23 13:22:16;;;;;;;2.70;0.93;;;13.10;99.90;;;;;;4921935;29;20285;-78
2023/11/23 13:24:43;;;;;;;3.20;0.73;;;13.20;99.90;;;;;;4953603;28;20204;-77
2023/11/23 13:27:12;;;;;;;4.67;1.00;;;13.10;99.90;;;;;;4942588;28;20239;-75
2023/11/23 13:29:39;;;;;;;3.03;0.70;;;13.20;99.90;;;;;;4919169;29;20269;-76
2023/11/23 13:32:10;;;;;;;1.20;0.80;;;13.20;99.90;;;;;;4918818;29;20218;-75
2023/11/23 13:34:37;;;;;;;1.67;0.80;;;13.10;99.90;;;;;;4918307;29;20214;-76
2023/11/23 13:37:05;;;;;;;2.37;0.90;;;13.10;99.90;;;;;;4920656;29;20212;-75
2023/11/23 13:39:36;;;;;;;2.17;0.90;;;12.90;99.90;;;;;;4918624;29;20673;-76
2023/11/23 13:42:03;;;;;;;2.87;0.90;;;13.00;99.90;;;;;;4918069;29;20589;-77
2023/11/23 13:44:30;;;;;;;1.93;0.97;;;13.10;99.90;;;;;;4918223;29;20225;-75
2023/11/23 13:46:58;;;;;;;4.60;0.90;;;13.30;99.90;;;;;;4920983;29;20323;-76
2023/11/23 13:49:26;;;;;;;2.67;1.60;;;13.30;99.90;;;;;;4928327;29;20204;-76
2023/11/23 13:51:53;;;;;;;4.20;1.37;;;13.30;99.90;;;;;;4951028;28;20314;-77
2023/11/23 13:54:21;;;;;;;1.20;0.97;;;13.30;99.90;;;;;;4936693;29;20243;-76
2023/11/23 13:56:49;;;;;;;1.53;0.90;;;13.40;99.90;;;;;;4935163;29;20242;-73
2023/11/23 13:59:16;;;;;;;1.40;0.90;;;13.40;99.90;;;;;;4917906;29;20209;-76
2023/11/23 14:01:43;;;;;;;6.10;1.47;;;13.30;99.90;;;;;;4917271;29;20237;-76
2023/11/23 14:04:13;;;;;;;4.20;0.90;;;13.30;99.90;;;;;;4917516;29;20214;-76
2023/11/23 14:06:43;;;;;;;3.23;1.00;;;13.20;99.90;;;;;;4921650;29;20220;-82
2023/11/23 14:09:17;;;;;;;3.43;1.00;;;13.10;99.90;;;;;;4936802;29;20209;-82
2023/11/23 14:11:45;;;;;;;1.80;0.63;;;12.90;99.90;;;;;;4936190;29;20232;-76
2023/11/23 14:14:12;;;;;;;1.33;0.77;;;12.80;99.90;;;;;;4936669;29;20211;-74
2023/11/23 14:16:39;;;;;;;2.23;1.03;;;12.80;99.90;;;;;;4936190;29;20217;-74
2023/11/23 14:19:12;;;;;;;3.57;0.90;;;12.70;99.90;;;;;;4953988;28;20623;-74
2023/11/23 14:21:41;;;;;;;1.67;0.87;;;12.60;99.90;;;;;;4955392;28;20230;-73
2023/11/23 14:24:09;;;;;;;2.03;1.10;;;12.70;99.90;;;;;;4918376;28;20209;-80
2023/11/23 14:26:36;;;;;;;2.23;0.93;;;12.70;99.90;;;;;;4920642;29;20224;-75
2023/11/23 14:29:04;;;;;;;2.13;0.80;;;12.60;99.90;;;;;;4918455;29;20300;-77
2023/11/23 14:31:32;;;;;;;0.90;0.60;;;12.60;99.90;;;;;;4917842;29;20597;-76
2023/11/23 14:33:59;;;;;;;1.80;0.73;;;12.60;99.90;;;;;;4918094;29;20286;-73
2023/11/23 14:36:28;;;;;;;1.47;0.63;;;12.60;99.90;;;;;;4931105;29;20213;-78
2023/11/23 14:38:57;;;;;;;3.67;0.80;;;12.50;99.90;;;;;;4923274;29;20218;-77
2023/11/23 14:41:27;;;;;;;3.23;1.17;;;12.50;99.90;;;;;;4918379;29;20229;-74
2023/11/23 14:43:54;;;;;;;3.03;1.00;;;12.50;99.90;;;;;;4916661;29;20241;-73
2023/11/23 14:46:21;;;;;;;2.07;1.10;;;12.50;99.90;;;;;;4936143;29;20237;-73
2023/11/23 14:48:48;;;;;;;1.93;0.77;;;12.50;99.90;;;;;;4936486;29;20244;-74
2023/11/23 14:51:16;;;;;;;5.17;0.80;;;12.60;99.90;;;;;;4934079;29;20489;-74
2023/11/23 14:53:43;;;;;;;2.60;1.17;;;12.60;99.90;;;;;;4934082;29;20205;-76
2023/11/23 14:56:10;;;;;;;1.93;0.97;;;12.60;99.90;;;;;;4934196;29;20301;-73
2023/11/23 14:58:38;;;;;;;2.43;0.80;;;12.70;99.90;;;;;;4921831;29;20233;-74
2023/11/23 15:01:05;;;;;;;3.03;0.90;;;12.60;99.90;;;;;;4915188;29;20210;-73
2023/11/23 15:03:32;;;;;;;3.93;0.80;;;12.70;99.90;;;;;;4915273;29;20708;-73
2023/11/23 15:06:00;;;;;;;2.87;0.80;;;12.70;99.90;;;;;;4929493;29;20687;-77
2023/11/23 15:08:27;;;;;;;1.43;0.90;;;12.70;99.90;;;;;;4924650;29;20273;-77
2023/11/23 15:10:54;;;;;;;6.53;1.13;;;12.70;99.90;;;;;;4928655;29;20259;-74
2023/11/23 15:13:21;;;;;;;3.67;0.80;;;12.70;99.90;;;;;;4934409;29;20290;-74
2023/11/23 15:15:49;;;;;;;1.87;0.90;;;12.70;99.90;;;;;;4934243;29;20211;-77
2023/11/23 15:18:16;;;;;;;5.70;1.03;;;12.70;99.90;;;;;;4925741;29;20213;-74
2023/11/23 15:20:45;;;;;;;3.87;1.10;;;12.70;99.90;;;;;;4916004;29;20669;-81
2023/11/23 15:23:13;;;;;;;8.33;1.20;;;12.70;99.90;;;;;;4935779;29;20225;-73
2023/11/23 15:25:40;;;;;;;3.17;1.20;;;12.70;99.90;;;;;;4915605;29;20571;-73
2023/11/23 15:28:10;;;;;;;4.80;1.20;;;12.70;99.90;;;;;;4924408;29;20244;-75
2023/11/23 15:30:39;;;;;;;2.30;1.30;;;12.60;99.90;;;;;;4929684;29;20628;-73
2023/11/23 15:33:10;;;;;;;2.10;1.10;;;12.60;99.90;;;;;;4941299;28;20250;-82
2023/11/23 15:35:40;;;;;;;3.00;1.00;;;12.60;99.90;;;;;;4917080;29;20213;-73
2023/11/23 15:38:08;;;;;;;4.60;1.10;;;12.60;99.90;;;;;;4927602;29;20348;-81
2023/11/23 15:40:35;;;;;;;1.67;1.00;;;12.50;99.90;;;;;;4931492;29;20731;-85
2023/11/23 15:43:03;;;;;;;2.93;1.00;;;12.50;99.90;;;;;;4930626;29;20315;-81
2023/11/23 15:45:30;;;;;;;5.27;0.93;;;12.50;99.90;;;;;;4917316;29;20269;-86
2023/11/23 15:47:59;;;;;;;7.17;0.90;;;12.60;99.90;;;;;;4926480;29;20799;-84
2023/11/23 15:50:29;;;;;;;3.77;1.40;;;12.60;99.90;;;;;;4918830;29;20224;-76
2023/11/23 15:52:57;;;;;;;1.17;0.70;;;12.50;99.90;;;;;;4931171;29;20736;-86
2023/11/23 15:55:25;;;;;;;2.90;0.83;;;12.40;99.90;;;;;;4917033;29;20648;-81
2023/11/23 15:57:52;;;;;;;4.10;1.03;;;12.40;99.90;;;;;;4927347;29;20214;-84
2023/11/23 16:00:23;;;;;;;3.37;1.03;;;12.30;99.90;;;;;;4917097;29;20214;-81
2023/11/23 16:02:50;;;;;;;6.83;0.80;;;12.30;99.90;;;;;;4917472;29;20217;-81
2023/11/23 16:05:24;;;;;;;4.10;1.00;;;12.20;99.90;;;;;;4916727;29;20206;-79
2023/11/23 16:07:53;;;;;;;1.30;0.90;;;12.10;99.90;;;;;;4927661;29;20233;-83
2023/11/23 16:10:20;;;;;;;5.57;1.20;;;12.00;99.90;;;;;;4917158;29;20213;-73
2023/11/23 16:12:48;;;;;;;5.43;0.93;;;11.90;99.90;;;;;;4916945;29;20261;-83
2023/11/23 16:15:15;;;;;;;3.77;1.20;;;11.80;99.90;;;;;;4916229;29;20214;-80
2023/11/23 16:17:43;;;;;;;6.03;1.30;;;11.80;99.90;;;;;;4926329;29;20217;-79
2023/11/23 16:20:15;;;;;;;1.70;0.83;;;11.80;99.90;;;;;;4915829;29;20216;-74
2023/11/23 16:22:44;;;;;;;1.33;0.67;;;11.80;99.90;;;;;;4942436;29;20228;-76
2023/11/23 16:25:13;;;;;;;2.97;1.07;;;11.70;99.90;;;;;;4917871;29;20210;-80
2023/11/23 16:27:40;;;;;;;3.00;1.13;;;11.60;99.90;;;;;;4930937;29;20233;-73
2023/11/23 16:30:09;;;;;;;1.73;0.87;;;11.60;99.90;;;;;;4920464;29;20577;-83
2023/11/23 16:32:36;;;;;;;3.33;0.83;;;11.60;99.90;;;;;;4920557;29;20624;-82
2023/11/23 16:35:07;;;;;;;4.60;1.60;;;11.60;99.90;;;;;;4922038;29;20217;-75
2023/11/23 16:37:35;;;;;;;4.07;1.30;;;11.60;99.90;;;;;;4938809;29;20213;-77
2023/11/23 16:40:05;;;;;;;2.60;1.30;;;11.60;99.90;;;;;;4921437;29;20215;-76
2023/11/23 16:42:34;;;;;;;5.53;1.00;;;11.60;99.90;;;;;;4921461;29;20304;-84
2023/11/23 16:45:02;;;;;;;2.03;1.03;;;11.60;99.90;;;;;;4921492;29;20206;-79
2023/11/23 16:47:29;;;;;;;2.13;1.07;;;11.60;99.90;;;;;;4933157;29;20208;-80
2023/11/23 16:49:57;;;;;;;2.03;0.83;;;11.60;99.90;;;;;;4926114;29;20202;-83
2023/11/23 16:52:25;;;;;;;3.27;1.07;;;11.60;99.90;;;;;;4920644;29;20261;-83
2023/11/23 16:54:52;;;;;;;3.33;1.00;;;11.60;99.90;;;;;;4919673;29;20217;-78
2023/11/23 16:57:19;;;;;;;2.27;1.13;;;11.60;99.90;;;;;;4928248;29;20212;-77
2023/11/23 16:59:48;;;;;;;3.63;1.60;;;11.60;99.90;;;;;;4922534;29;20205;-78
2023/11/23 17:02:15;;;;;;;4.03;1.57;;;11.60;99.90;;;;;;4926576;29;20221;-76
2023/11/23 17:04:43;;;;;;;3.47;1.40;;;11.50;99.90;;;;;;4923499;29;20608;-75
2023/11/23 17:07:10;;;;;;;6.70;1.80;;;11.50;99.90;;;;;;4926690;29;20260;-76
2023/11/23 17:10:02;;;;;;;2.63;1.10;;;11.50;99.90;;;;;;4924217;29;20241;-77
2023/11/23 17:12:29;;;;;;;3.60;1.33;;;11.50;99.90;;;;;;4918848;29;20316;-77
2023/11/23 17:14:59;;;;;;;3.03;1.37;;;11.50;99.90;;;;;;4919009;29;20214;-78
2023/11/23 17:17:27;;;;;;;3.07;1.30;;;11.40;99.90;;;;;;4919183;29;20576;-79
2023/11/23 17:19:54;;;;;;;5.20;1.50;;;11.30;99.90;;;;;;4919170;29;20669;-76
2023/11/23 17:22:21;;;;;;;3.70;1.50;;;11.20;99.90;;;;;;4919129;29;20689;-79
2023/11/23 17:24:51;;;;;;;5.70;1.77;;;11.20;99.90;;;;;;4919203;29;20672;-79
2023/11/23 17:27:18;;;;;;;4.33;1.93;;;11.20;99.90;;;;;;4919020;29;20210;-78
2023/11/23 17:29:45;;;;;;;6.47;1.53;;;11.20;99.90;;;;;;4918815;29;20249;-78
2023/11/23 17:32:16;;;;;;;2.07;1.20;;;11.20;99.90;;;;;;4918667;29;20320;-80
2023/11/23 17:34:44;;;;;;;3.97;1.50;;;11.10;99.90;;;;;;4918966;29;20214;-79
2023/11/23 17:37:12;;;;;;;4.63;1.60;;;11.10;99.90;;;;;;4918207;29;20210;-81
2023/11/23 17:39:40;;;;;;;7.57;1.60;;;11.10;99.90;;;;;;4918808;29;20245;-78
2023/11/23 17:42:07;;;;;;;4.53;2.00;;;11.10;99.90;;;;;;4918658;29;20256;-77
2023/11/23 17:44:34;;;;;;;4.40;2.20;;;11.10;99.90;;;;;;4918648;29;20205;-77
2023/11/23 17:47:01;;;;;;;3.90;1.90;;;11.10;99.90;;;;;;4918618;29;20305;-78
2023/11/23 17:49:30;;;;;;;3.37;1.70;;;10.90;99.90;;;;;;4918511;29;20262;-78
2023/11/23 17:51:58;;;;;;;4.03;1.70;;;10.90;99.90;;;;;;4918217;29;20234;-78
2023/11/23 17:54:28;;;;;;;7.20;1.63;;;10.90;99.90;;;;;;4918704;29;20216;-78
2023/11/23 17:56:55;;;;;;;4.60;1.80;;;11.00;99.90;;;;;;4918511;29;20213;-78
2023/11/23 17:59:23;;;;;;;4.87;2.03;;;11.00;99.90;;;;;;4918570;29;20257;-74
2023/11/23 18:01:50;;;;;;;7.73;2.10;;;10.90;99.90;;;;;;4918391;29;20233;-77
2023/11/23 18:04:17;;;;;;;3.77;1.90;;;10.90;99.90;;;;;;4918645;29;20215;-79
2023/11/23 18:06:46;;;;;;;4.87;1.83;;;10.70;99.90;;;;;;4918566;29;20617;-78
2023/11/23 18:09:13;;;;;;;2.67;1.60;;;10.70;99.90;;;;;;4918645;29;20241;-78
2023/11/23 18:11:40;;;;;;;5.13;2.20;;;10.70;99.90;;;;;;4918564;29;20225;-79
2023/11/23 18:14:07;;;;;;;3.80;1.97;;;10.70;99.90;;;;;;4918452;29;20586;-75
2023/11/23 18:16:34;;;;;;;7.33;2.10;;;10.70;99.90;;;;;;4918162;29;20225;-78
2023/11/23 18:19:02;;;;;;;3.60;1.90;;;10.70;99.90;;;;;;4918586;29;20205;-79
2023/11/23 18:21:29;;;;;;;3.77;1.87;;;10.80;99.90;;;;;;4918537;29;20240;-79
2023/11/23 18:23:58;;;;;;;4.27;2.30;;;10.90;99.90;;;;;;4919609;29;20581;-74
2023/11/23 18:26:25;;;;;;;4.60;1.90;;;10.80;99.90;;;;;;4918939;29;20604;-74
2023/11/23 18:28:52;;;;;;;4.50;1.87;;;10.80;99.90;;;;;;4936502;29;20248;-75
2023/11/23 18:31:22;;;;;;;6.07;1.80;;;10.80;99.90;;;;;;4936560;29;20299;-74
2023/11/23 18:33:49;;;;;;;3.33;2.07;;;10.70;99.90;;;;;;4937318;29;20237;-75
2023/11/23 18:36:18;;;;;;;3.83;2.10;;;10.70;99.90;;;;;;4938047;29;20248;-75
2023/11/23 18:38:45;;;;;;;3.03;1.77;;;10.80;99.90;;;;;;4936283;29;20272;-74
2023/11/23 18:41:14;;;;;;;5.50;1.90;;;10.80;99.90;;;;;;4935387;29;20244;-78
2023/11/23 18:43:41;;;;;;;5.13;1.83;;;10.90;99.90;;;;;;4935915;29;20209;-76
2023/11/23 18:46:08;;;;;;;4.87;1.80;;;11.00;99.90;;;;;;4935914;29;20320;-75
2023/11/23 18:48:36;;;;;;;3.90;1.60;;;11.10;99.90;;;;;;4922554;29;20232;-77
2023/11/23 18:51:04;;;;;;;3.80;1.77;;;11.10;99.90;;;;;;4935554;29;20291;-80
2023/11/23 18:53:31;;;;;;;3.87;1.77;;;11.10;99.90;;;;;;4935460;29;20553;-74
2023/11/23 18:55:58;;;;;;;2.87;1.93;;;11.10;99.90;;;;;;4934902;29;20213;-76
2023/11/23 18:58:26;;;;;;;3.60;1.90;;;11.20;99.90;;;;;;4921061;29;20213;-79
2023/11/23 19:00:55;;;;;;;4.27;1.73;;;11.20;99.90;;;;;;4930214;29;20256;-75
2023/11/23 19:03:22;;;;;;;7.77;2.60;;;11.20;99.90;;;;;;4935070;29;20319;-80
2023/11/23 19:05:50;;;;;;;3.30;2.03;;;11.30;99.90;;;;;;4935422;29;20724;-78
2023/11/23 19:08:16;;;;;;;3.33;1.87;;;11.30;99.90;;;;;;4936146;29;20655;-80
2023/11/23 19:10:45;;;;;;;5.50;2.03;;;11.30;99.90;;;;;;4936644;29;20573;-74
2023/11/23 19:13:13;;;;;;;4.80;2.23;;;11.30;99.90;;;;;;4935181;29;20240;-75
2023/11/23 19:15:41;;;;;;;3.00;1.50;;;11.30;99.90;;;;;;4935509;29;20213;-74
2023/11/23 19:18:09;;;;;;;5.33;1.83;;;11.20;99.90;;;;;;4935338;29;20268;-76
2023/11/23 19:20:37;;;;;;;3.83;2.00;;;11.20;99.90;;;;;;4935303;29;20541;-74
2023/11/23 19:23:05;;;;;;;5.97;2.03;;;11.30;99.90;;;;;;4934923;29;20224;-78
2023/11/23 19:25:32;;;;;;;4.77;1.87;;;11.30;99.90;;;;;;4935561;29;20295;-79
